Wetterdaten: aktuell Donnerstag, 13.12.2018 23:10
Datum Zeit Temp. A. Feuchte A. Luftdruck Regen Wind Richtung Richtung Taupunkt Windchill Windben Empfang
13.12.2018 23:10 1,7 C 92 % 1023,6 hPa 0,0 l/m 4,1 km/h (1 Bft) N-NO 30 0,5 C 1,7 C 10,3 km/h (2 Bft) 100 %
13.12.2018 23:00 1,7 C 92 % 1023,6 hPa 0,0 l/m 3,4 km/h (1 Bft) O-NO 65 0,5 C 1,7 C 10,3 km/h (2 Bft) 99 %
13.12.2018 22:50 1,6 C 92 % 1023,6 hPa 0,0 l/m 3,5 km/h (1 Bft) O-NO 64 0,4 C 1,6 C 12,4 km/h (3 Bft) 100 %
13.12.2018 22:40 1,6 C 92 % 1023,6 hPa 0,0 l/m 3,9 km/h (1 Bft) O 94 0,4 C 1,6 C 14,4 km/h (3 Bft) 100 %
13.12.2018 22:30 1,6 C 92 % 1023,7 hPa 0,0 l/m 3,6 km/h (1 Bft) O-NO 64 0,4 C 1,6 C 8,2 km/h (2 Bft) 100 %
13.12.2018 22:20 1,6 C 92 % 1023,8 hPa 0,0 l/m 4,1 km/h (1 Bft) O-NO 69 0,4 C 1,6 C 10,3 km/h (2 Bft) 100 %
13.12.2018 22:10 1,5 C 92 % 1023,7 hPa 0,0 l/m 3,7 km/h (1 Bft) O-NO 69 0,3 C 1,5 C 8,2 km/h (2 Bft) 99 %
13.12.2018 22:00 1,5 C 92 % 1023,6 hPa 0,0 l/m 3,1 km/h (1 Bft) O-NO 57 0,3 C 1,5 C 8,2 km/h (2 Bft) 100 %
13.12.2018 21:50 1,5 C 92 % 1023,6 hPa 0,0 l/m 4,1 km/h (1 Bft) NO 49 0,3 C 1,5 C 14,4 km/h (3 Bft) 99 %
13.12.2018 21:40 1,5 C 92 % 1023,6 hPa 0,0 l/m 3,8 km/h (1 Bft) N-NO 26 0,3 C 1,5 C 10,3 km/h (2 Bft) 100 %
13.12.2018 21:30 1,5 C 92 % 1023,6 hPa 0,0 l/m 4,0 km/h (1 Bft) O-NO 57 0,3 C 1,5 C 8,2 km/h (2 Bft) 99 %
13.12.2018 21:20 1,5 C 92 % 1023,6 hPa 0,0 l/m 4,4 km/h (1 Bft) NO 42 0,3 C 1,5 C 10,3 km/h (2 Bft) 100 %
13.12.2018 21:10 1,5 C 92 % 1023,5 hPa 0,0 l/m 3,9 km/h (1 Bft) NO 40 0,3 C 1,5 C 8,2 km/h (2 Bft) 99 %
13.12.2018 21:00 1,5 C 92 % 1023,5 hPa 0,0 l/m 4,2 km/h (1 Bft) O 82 0,3 C 1,5 C 8,2 km/h (2 Bft) 99 %
13.12.2018 20:50 1,4 C 91 % 1023,3 hPa 0,0 l/m 4,2 km/h (1 Bft) N-NO 30 0,1 C 1,4 C 10,3 km/h (2 Bft) 100 %
13.12.2018 20:40 1,4 C 91 % 1023,3 hPa 0,0 l/m 4,9 km/h (1 Bft) N-NO 30 0,1 C 1,4 C 10,3 km/h (2 Bft) 100 %
13.12.2018 20:30 1,4 C 91 % 1023,4 hPa 0,0 l/m 4,6 km/h (1 Bft) N-NO 15 0,1 C 1,4 C 10,3 km/h (2 Bft) 99 %
13.12.2018 20:20 1,4 C 91 % 1023,4 hPa 0,0 l/m 3,4 km/h (1 Bft) NO 52 0,1 C 1,4 C 8,2 km/h (2 Bft) 98 %
13.12.2018 20:10 1,4 C 91 % 1023,3 hPa 0,0 l/m 3,5 km/h (1 Bft) NO 48 0,1 C 1,4 C 6,2 km/h (2 Bft) 99 %
13.12.2018 20:00 1,4 C 91 % 1023,3 hPa 0,0 l/m 3,6 km/h (1 Bft) O 96 0,1 C 1,4 C 12,4 km/h (3 Bft) 99 %
13.12.2018 19:50 1,4 C 91 % 1023,2 hPa 0,0 l/m 4,1 km/h (1 Bft) N-NO 30 0,1 C 1,4 C 8,2 km/h (2 Bft) 98 %
13.12.2018 19:40 1,3 C 91 % 1023,2 hPa 0,0 l/m 3,3 km/h (1 Bft) O-NO 61 -0,0 C 1,3 C 8,2 km/h (2 Bft) 100 %
13.12.2018 19:30 1,3 C 91 % 1023,2 hPa 0,0 l/m 3,0 km/h (1 Bft) NO 56 -0,0 C 1,3 C 14,4 km/h (3 Bft) 99 %
13.12.2018 19:20 1,3 C 91 % 1023,1 hPa 0,0 l/m 2,9 km/h (1 Bft) NO 47 -0,0 C 1,3 C 6,2 km/h (2 Bft) 100 %
13.12.2018 19:10 1,3 C 91 % 1023,2 hPa 0,0 l/m 3,4 km/h (1 Bft) NO 47 -0,0 C 1,3 C 12,4 km/h (3 Bft) 100 %
13.12.2018 19:00 1,3 C 91 % 1023,2 hPa 0,0 l/m 4,3 km/h (1 Bft) NO 53 -0,0 C 1,3 C 8,2 km/h (2 Bft) 99 %
13.12.2018 18:50 1,2 C 91 % 1023,1 hPa 0,0 l/m 4,8 km/h (1 Bft) NO 36 -0,1 C 1,2 C 14,4 km/h (3 Bft) 100 %
13.12.2018 18:40 1,2 C 91 % 1023,2 hPa 0,0 l/m 5,2 km/h (1 Bft) NO 53 -0,1 C 1,2 C 12,4 km/h (3 Bft) 100 %
13.12.2018 18:30 1,2 C 91 % 1023,1 hPa 0,0 l/m 5,2 km/h (1 Bft) NO 35 -0,1 C 1,2 C 10,3 km/h (2 Bft) 100 %
13.12.2018 18:20 1,2 C 91 % 1023,3 hPa 0,0 l/m 5,8 km/h (2 Bft) N-NO 20 -0,1 C 1,2 C 12,4 km/h (3 Bft) 99 %
13.12.2018 18:10 1,2 C 91 % 1023,3 hPa 0,0 l/m 5,6 km/h (1 Bft) NO 40 -0,1 C 1,2 C 12,4 km/h (3 Bft) 100 %
13.12.2018 18:00 1,2 C 91 % 1023,3 hPa 0,0 l/m 4,9 km/h (1 Bft) O 80 -0,1 C 1,2 C 10,3 km/h (2 Bft) 99 %
13.12.2018 17:50 1,2 C 90 % 1023,3 hPa 0,0 l/m 4,1 km/h (1 Bft) NO 37 -0,3 C 1,2 C 10,3 km/h (2 Bft) 99 %
13.12.2018 17:40 1,2 C 90 % 1023,2 hPa 0,0 l/m 3,4 km/h (1 Bft) O-NO 58 -0,3 C 1,2 C 8,2 km/h (2 Bft) 100 %
13.12.2018 17:30 1,2 C 90 % 1023,3 hPa 0,0 l/m 4,4 km/h (1 Bft) NO 51 -0,3 C 1,2 C 14,4 km/h (3 Bft) 100 %
13.12.2018 17:20 1,2 C 90 % 1023,2 hPa 0,0 l/m 3,6 km/h (1 Bft) O-NO 73 -0,3 C 1,2 C 10,3 km/h (2 Bft) 99 %
13.12.2018 17:10 1,2 C 90 % 1023,2 hPa 0,0 l/m 4,1 km/h (1 Bft) NO 34 -0,3 C 1,2 C 8,2 km/h (2 Bft) 100 %
13.12.2018 17:00 1,3 C 89 % 1023,3 hPa 0,0 l/m 4,0 km/h (1 Bft) NO 41 -0,3 C 1,3 C 8,2 km/h (2 Bft) 100 %
13.12.2018 16:50 1,4 C 89 % 1023,3 hPa 0,0 l/m 3,4 km/h (1 Bft) N-NO 33 -0,2 C 1,4 C 6,2 km/h (2 Bft) 100 %
13.12.2018 16:40 1,6 C 88 % 1023,3 hPa 0,0 l/m 2,1 km/h (1 Bft) N-NO 22 -0,2 C 1,6 C 8,2 km/h (2 Bft) 100 %
13.12.2018 16:30 1,8 C 87 % 1023,3 hPa 0,0 l/m 4,1 km/h (1 Bft) N-NO 22 -0,1 C 1,8 C 8,2 km/h (2 Bft) 100 %
13.12.2018 16:20 2,0 C 87 % 1023,2 hPa 0,0 l/m 4,1 km/h (1 Bft) O-NO 67 0,1 C 2,0 C 14,4 km/h (3 Bft) 100 %
13.12.2018 16:10 2,3 C 87 % 1023,2 hPa 0,0 l/m 4,1 km/h (1 Bft) O 90 0,4 C 2,3 C 14,4 km/h (3 Bft) 100 %
13.12.2018 16:00 2,5 C 86 % 1023,1 hPa 0,0 l/m 2,1 km/h (1 Bft) NO 45 0,4 C 2,5 C 6,2 km/h (2 Bft) 100 %
13.12.2018 15:50 2,7 C 85 % 1023,1 hPa 0,0 l/m 4,1 km/h (1 Bft) NO 45 0,4 C 2,7 C 14,4 km/h (3 Bft) 100 %
13.12.2018 15:40 3,0 C 85 % 1023,1 hPa 0,0 l/m 4,1 km/h (1 Bft) O-NO 67 0,7 C 3,0 C 10,3 km/h (2 Bft) 100 %
13.12.2018 15:30 3,2 C 85 % 1023,0 hPa 0,0 l/m 4,1 km/h (1 Bft) O-NO 67 0,9 C 3,2 C 12,4 km/h (3 Bft) 100 %
13.12.2018 15:20 3,2 C 84 % 1023,0 hPa 0,0 l/m 4,1 km/h (1 Bft) O 90 0,8 C 3,2 C 16,5 km/h (3 Bft) 100 %
13.12.2018 15:10 3,3 C 84 % 1023,1 hPa 0,0 l/m 6,2 km/h (2 Bft) NO 45 0,9 C 3,3 C 16,5 km/h (3 Bft) 100 %
13.12.2018 15:00 3,4 C 83 % 1023,1 hPa 0,0 l/m 6,2 km/h (2 Bft) O 90 0,8 C 3,4 C 14,4 km/h (3 Bft) 100 %
13.12.2018 14:50 3,6 C 82 % 1023,1 hPa 0,0 l/m 4,1 km/h (1 Bft) NO 45 0,8 C 3,6 C 16,5 km/h (3 Bft) 100 %
13.12.2018 14:40 3,8 C 82 % 1023,2 hPa 0,0 l/m 6,2 km/h (2 Bft) O 90 1,0 C 3,8 C 16,5 km/h (3 Bft) 100 %
13.12.2018 14:30 3,9 C 81 % 1023,3 hPa 0,0 l/m 6,2 km/h (2 Bft) O 90 0,9 C 3,9 C 20,6 km/h (4 Bft) 100 %
13.12.2018 14:20 4,1 C 79 % 1023,3 hPa 0,0 l/m 8,2 km/h (2 Bft) O 90 0,8 C 2,5 C 22,7 km/h (4 Bft) 100 %
13.12.2018 14:10 4,3 C 78 % 1023,3 hPa 0,0 l/m 8,2 km/h (2 Bft) O 90 0,8 C 2,7 C 22,7 km/h (4 Bft) 100 %
13.12.2018 14:00 4,6 C 77 % 1023,4 hPa 0,0 l/m 8,2 km/h (2 Bft) O 90 0,9 C 3,0 C 26,8 km/h (4 Bft) 100 %
13.12.2018 13:50 4,4 C 78 % 1023,5 hPa 0,0 l/m 8,2 km/h (2 Bft) O 90 0,9 C 2,8 C 20,6 km/h (4 Bft) 100 %
13.12.2018 13:40 4,4 C 79 % 1023,6 hPa 0,0 l/m 6,2 km/h (2 Bft) O 90 1,1 C 4,4 C 18,5 km/h (3 Bft) 100 %
13.12.2018 13:30 4,4 C 79 % 1023,6 hPa 0,0 l/m 10,3 km/h (2 Bft) O-NO 67 1,1 C 1,2 C 24,7 km/h (4 Bft) 100 %
13.12.2018 13:20 4,3 C 81 % 1023,5 hPa 0,0 l/m 10,3 km/h (2 Bft) O 90 1,3 C 1,1 C 28,8 km/h (4 Bft) 100 %
13.12.2018 13:10 4,1 C 83 % 1023,6 hPa 0,0 l/m 12,4 km/h (3 Bft) O 90 1,5 C -0,5 C 30,9 km/h (5 Bft) 100 %
13.12.2018 13:00 3,7 C 85 % 1023,8 hPa 0,0 l/m 10,3 km/h (2 Bft) O 90 1,4 C 0,4 C 24,7 km/h (4 Bft) 100 %
13.12.2018 12:50 3,6 C 85 % 1023,8 hPa 0,0 l/m 8,2 km/h (2 Bft) O 90 1,3 C 2,0 C 22,7 km/h (4 Bft) 100 %
13.12.2018 12:40 3,5 C 86 % 1023,9 hPa 0,0 l/m 8,2 km/h (2 Bft) O 90 1,4 C 1,9 C 20,6 km/h (4 Bft) 100 %
13.12.2018 12:30 3,3 C 85 % 1024,0 hPa 0,0 l/m 8,2 km/h (2 Bft) O 90 1,0 C 1,6 C 22,7 km/h (4 Bft) 100 %
13.12.2018 12:20 3,2 C 86 % 1024,1 hPa 0,0 l/m 6,2 km/h (2 Bft) O-SO 112 1,1 C 3,2 C 22,7 km/h (4 Bft) 100 %
13.12.2018 12:10 3,2 C 86 % 1024,3 hPa 0,0 l/m 8,2 km/h (2 Bft) O 90 1,1 C 1,5 C 16,5 km/h (3 Bft) 100 %
13.12.2018 12:00 3,1 C 87 % 1024,4 hPa 0,0 l/m 6,2 km/h (2 Bft) O 90 1,2 C 3,1 C 20,6 km/h (4 Bft) 100 %
13.12.2018 11:50 3,0 C 88 % 1024,4 hPa 0,0 l/m 6,2 km/h (2 Bft) O 90 1,2 C 3,0 C 14,4 km/h (3 Bft) 100 %
13.12.2018 11:40 2,9 C 88 % 1024,4 hPa 0,0 l/m 4,1 km/h (1 Bft) O 90 1,1 C 2,9 C 12,4 km/h (3 Bft) 100 %
13.12.2018 11:30 2,9 C 88 % 1024,6 hPa 0,0 l/m 4,1 km/h (1 Bft) O 90 1,1 C 2,9 C 14,4 km/h (3 Bft) 100 %
13.12.2018 11:20 2,9 C 87 % 1024,5 hPa 0,0 l/m 6,2 km/h (2 Bft) O 90 1,0 C 2,9 C 18,5 km/h (3 Bft) 100 %
13.12.2018 11:10 2,9 C 87 % 1024,6 hPa 0,0 l/m 6,2 km/h (2 Bft) O 90 1,0 C 2,9 C 16,5 km/h (3 Bft) 100 %
13.12.2018 11:00 2,8 C 88 % 1024,8 hPa 0,0 l/m 6,2 km/h (2 Bft) O 90 1,0 C 2,8 C 16,5 km/h (3 Bft) 100 %
13.12.2018 10:50 2,7 C 88 % 1024,8 hPa 0,0 l/m 6,2 km/h (2 Bft) O-NO 67 0,9 C 2,7 C 20,6 km/h (4 Bft) 100 %
13.12.2018 10:40 2,6 C 89 % 1024,8 hPa 0,0 l/m 8,2 km/h (2 Bft) O 90 1,0 C 0,9 C 18,5 km/h (3 Bft) 100 %
13.12.2018 10:30 2,4 C 90 % 1024,7 hPa 0,0 l/m 6,2 km/h (2 Bft) O 90 0,9 C 2,4 C 20,6 km/h (4 Bft) 100 %
13.12.2018 10:20 2,2 C 91 % 1024,7 hPa 0,0 l/m 6,2 km/h (2 Bft) O 90 0,9 C 2,2 C 20,6 km/h (4 Bft) 100 %
13.12.2018 10:10 2,1 C 92 % 1024,7 hPa 0,0 l/m 6,2 km/h (2 Bft) O-NO 67 0,9 C 2,1 C 18,5 km/h (3 Bft) 100 %
13.12.2018 10:00 1,9 C 93 % 1024,7 hPa 0,0 l/m 6,2 km/h (2 Bft) O-NO 67 0,9 C 1,9 C 18,5 km/h (3 Bft) 100 %
13.12.2018 09:50 1,8 C 93 % 1024,7 hPa 0,0 l/m 6,2 km/h (2 Bft) O-NO 67 0,8 C 1,8 C 18,5 km/h (3 Bft) 100 %
13.12.2018 09:40 1,7 C 93 % 1024,6 hPa 0,0 l/m 6,2 km/h (2 Bft) O-NO 67 0,7 C 1,7 C 18,5 km/h (3 Bft) 100 %
13.12.2018 09:30 1,5 C 94 % 1024,7 hPa 0,0 l/m 6,2 km/h (2 Bft) O 90 0,6 C 1,5 C 18,5 km/h (3 Bft) 100 %
13.12.2018 09:20 1,3 C 94 % 1024,6 hPa 0,0 l/m 6,2 km/h (2 Bft) O 90 0,4 C 1,3 C 16,5 km/h (3 Bft) 100 %
13.12.2018 09:10 1,2 C 94 % 1024,7 hPa 0,0 l/m 4,1 km/h (1 Bft) NO 45 0,3 C 1,2 C 16,5 km/h (3 Bft) 100 %
13.12.2018 09:00 1,1 C 94 % 1024,6 hPa 0,0 l/m 4,1 km/h (1 Bft) O-NO 67 0,2 C 1,1 C 12,4 km/h (3 Bft) 100 %
13.12.2018 08:50 1,1 C 94 % 1024,6 hPa 0,0 l/m 4,1 km/h (1 Bft) O-NO 67 0,2 C 1,1 C 14,4 km/h (3 Bft) 100 %
13.12.2018 08:40 1,1 C 94 % 1024,6 hPa 0,0 l/m 4,1 km/h (1 Bft) O-NO 67 0,2 C 1,1 C 14,4 km/h (3 Bft) 100 %
13.12.2018 08:30 1,1 C 94 % 1024,7 hPa 0,0 l/m 4,1 km/h (1 Bft) O-NO 67 0,2 C 1,1 C 14,4 km/h (3 Bft) 100 %
13.12.2018 08:20 1,1 C 94 % 1024,6 hPa 0,0 l/m 4,1 km/h (1 Bft) O-NO 67 0,2 C 1,1 C 16,5 km/h (3 Bft) 100 %
13.12.2018 08:10 1,2 C 94 % 1024,5 hPa 0,0 l/m 6,2 km/h (2 Bft) O-NO 67 0,3 C 1,2 C 22,7 km/h (4 Bft) 100 %
13.12.2018 08:00 1,2 C 94 % 1024,4 hPa 0,0 l/m 6,2 km/h (2 Bft) NO 45 0,3 C 1,2 C 16,5 km/h (3 Bft) 100 %
13.12.2018 07:50 1,1 C 94 % 1024,3 hPa 0,0 l/m 4,1 km/h (1 Bft) O 90 0,2 C 1,1 C 18,5 km/h (3 Bft) 100 %
13.12.2018 07:40 1,1 C 94 % 1024,3 hPa 0,0 l/m 4,1 km/h (1 Bft) O 90 0,2 C 1,1 C 16,5 km/h (3 Bft) 100 %
13.12.2018 07:30 0,9 C 94 % 1024,3 hPa 0,0 l/m 4,1 km/h (1 Bft) O 90 0,0 C 0,9 C 12,4 km/h (3 Bft) 100 %
13.12.2018 07:20 0,9 C 94 % 1024,3 hPa 0,0 l/m 2,1 km/h (1 Bft) O 90 0,0 C 0,9 C 8,2 km/h (2 Bft) 100 %
13.12.2018 07:10 1,1 C 94 % 1024,2 hPa 0,0 l/m 4,1 km/h (1 Bft) O-NO 67 0,2 C 1,1 C 16,5 km/h (3 Bft) 100 %
13.12.2018 07:00 1,2 C 94 % 1024,2 hPa 0,0 l/m 6,2 km/h (2 Bft) O 90 0,3 C 1,2 C 16,5 km/h (3 Bft) 100 %
13.12.2018 06:50 1,2 C 94 % 1024,1 hPa 0,0 l/m 8,2 km/h (2 Bft) O-NO 67 0,3 C -0,6 C 20,6 km/h (4 Bft) 100 %
13.12.2018 06:40 1,2 C 94 % 1024,1 hPa 0,0 l/m 6,2 km/h (2 Bft) O 90 0,3 C 1,2 C 18,5 km/h (3 Bft) 100 %
13.12.2018 06:30 1,2 C 94 % 1024,2 hPa 0,0 l/m 6,2 km/h (2 Bft) O 90 0,3 C 1,2 C 16,5 km/h (3 Bft) 100 %
13.12.2018 06:20 1,2 C 94 % 1024,2 hPa 0,0 l/m 4,1 km/h (1 Bft) O-NO 67 0,3 C 1,2 C 12,4 km/h (3 Bft) 100 %
13.12.2018 06:10 1,3 C 94 % 1024,3 hPa 0,0 l/m 6,2 km/h (2 Bft) O-NO 67 0,4 C 1,3 C 16,5 km/h (3 Bft) 100 %
13.12.2018 06:00 1,3 C 94 % 1024,4 hPa 0,0 l/m 6,2 km/h (2 Bft) O 90 0,4 C 1,3 C 18,5 km/h (3 Bft) 100 %
13.12.2018 05:50 1,4 C 94 % 1024,5 hPa 0,0 l/m 6,2 km/h (2 Bft) O-NO 67 0,5 C 1,4 C 16,5 km/h (3 Bft) 100 %
13.12.2018 05:40 1,4 C 93 % 1024,5 hPa 0,0 l/m 6,2 km/h (2 Bft) O-NO 67 0,4 C 1,4 C 12,4 km/h (3 Bft) 100 %
13.12.2018 05:30 1,6 C 93 % 1024,6 hPa 0,0 l/m 6,2 km/h (2 Bft) O 90 0,6 C 1,6 C 16,5 km/h (3 Bft) 100 %
13.12.2018 05:20 1,7 C 93 % 1024,6 hPa 0,0 l/m 6,2 km/h (2 Bft) O 90 0,7 C 1,7 C 16,5 km/h (3 Bft) 100 %
13.12.2018 05:10 1,7 C 93 % 1024,6 hPa 0,0 l/m 6,2 km/h (2 Bft) O-NO 67 0,7 C 1,7 C 16,5 km/h (3 Bft) 100 %
13.12.2018 05:00 1,8 C 93 % 1024,6 hPa 0,0 l/m 6,2 km/h (2 Bft) O 90 0,8 C 1,8 C 16,5 km/h (3 Bft) 100 %
13.12.2018 04:50 1,8 C 92 % 1024,7 hPa 0,0 l/m 6,2 km/h (2 Bft) O 90 0,6 C 1,8 C 16,5 km/h (3 Bft) 100 %
13.12.2018 04:40 1,8 C 91 % 1024,7 hPa 0,0 l/m 6,2 km/h (2 Bft) O 90 0,5 C 1,8 C 16,5 km/h (3 Bft) 100 %
13.12.2018 04:30 1,9 C 91 % 1024,7 hPa 0,0 l/m 6,2 km/h (2 Bft) O-NO 67 0,6 C 1,9 C 18,5 km/h (3 Bft) 100 %
13.12.2018 04:20 2,0 C 91 % 1024,9 hPa 0,0 l/m 8,2 km/h (2 Bft) O 90 0,7 C 0,3 C 18,5 km/h (3 Bft) 100 %
13.12.2018 04:10 2,2 C 91 % 1024,9 hPa 0,0 l/m 8,2 km/h (2 Bft) O 90 0,9 C 0,5 C 20,6 km/h (4 Bft) 100 %
13.12.2018 04:00 2,2 C 92 % 1025,1 hPa 0,0 l/m 6,0 km/h (2 Bft) O-NO 59 1,0 C 2,2 C 16,5 km/h (3 Bft) 100 %
13.12.2018 03:50 2,3 C 92 % 1025,0 hPa 0,0 l/m 6,5 km/h (2 Bft) O-NO 57 1,1 C 2,2 C 22,7 km/h (4 Bft) 97 %
13.12.2018 03:40 2,3 C 92 % 1025,1 hPa 0,0 l/m 7,6 km/h (2 Bft) O 84 1,1 C 1,1 C 20,6 km/h (4 Bft) 100 %
13.12.2018 03:30 2,3 C 91 % 1025,1 hPa 0,0 l/m 7,0 km/h (2 Bft) O 95 1,0 C 1,7 C 16,5 km/h (3 Bft) 99 %
13.12.2018 03:20 2,3 C 91 % 1025,2 hPa 0,0 l/m 6,3 km/h (2 Bft) O-NO 67 1,0 C 2,3 C 14,4 km/h (3 Bft) 99 %
13.12.2018 03:10 2,3 C 91 % 1025,2 hPa 0,0 l/m 8,6 km/h (2 Bft) O 96 1,0 C 0,2 C 20,6 km/h (4 Bft) 99 %
13.12.2018 03:00 2,4 C 91 % 1025,2 hPa 0,0 l/m 6,0 km/h (2 Bft) O-SO 115 1,1 C 2,4 C 16,5 km/h (3 Bft) 99 %
13.12.2018 02:50 2,5 C 91 % 1025,2 hPa 0,0 l/m 5,2 km/h (1 Bft) O-NO 72 1,2 C 2,5 C 16,5 km/h (3 Bft) 100 %
13.12.2018 02:40 2,6 C 92 % 1025,3 hPa 0,0 l/m 5,1 km/h (1 Bft) O 80 1,4 C 2,6 C 16,5 km/h (3 Bft) 99 %
13.12.2018 02:30 2,7 C 93 % 1025,3 hPa 0,0 l/m 5,2 km/h (1 Bft) O 101 1,7 C 2,7 C 12,4 km/h (3 Bft) 100 %
13.12.2018 02:20 2,7 C 93 % 1025,2 hPa 0,0 l/m 6,0 km/h (2 Bft) O 85 1,7 C 2,7 C 16,5 km/h (3 Bft) 99 %
13.12.2018 02:10 2,7 C 93 % 1025,2 hPa 0,0 l/m 4,3 km/h (1 Bft) NO 42 1,7 C 2,7 C 12,4 km/h (3 Bft) 100 %
13.12.2018 02:00 2,7 C 93 % 1025,3 hPa 0,0 l/m 5,5 km/h (1 Bft) O-NO 72 1,7 C 2,7 C 16,5 km/h (3 Bft) 100 %
13.12.2018 01:50 2,7 C 93 % 1025,4 hPa 0,0 l/m 4,3 km/h (1 Bft) NO 46 1,7 C 2,7 C 14,4 km/h (3 Bft) 100 %
13.12.2018 01:40 2,7 C 93 % 1025,5 hPa 0,0 l/m 4,2 km/h (1 Bft) NO 55 1,7 C 2,7 C 14,4 km/h (3 Bft) 100 %
13.12.2018 01:30 2,7 C 93 % 1025,5 hPa 0,0 l/m 5,5 km/h (1 Bft) O 88 1,7 C 2,7 C 14,4 km/h (3 Bft) 98 %
13.12.2018 01:20 2,7 C 93 % 1025,6 hPa 0,0 l/m 4,5 km/h (1 Bft) NO 42 1,7 C 2,7 C 16,5 km/h (3 Bft) 99 %
13.12.2018 01:10 2,7 C 94 % 1025,7 hPa 0,0 l/m 6,0 km/h (2 Bft) O 80 1,8 C 2,7 C 16,5 km/h (3 Bft) 99 %
13.12.2018 01:00 2,6 C 94 % 1025,7 hPa 0,0 l/m 4,7 km/h (1 Bft) O-SO 109 1,7 C 2,6 C 14,4 km/h (3 Bft) 98 %
13.12.2018 00:50 2,4 C 95 % 1025,7 hPa 0,0 l/m 5,0 km/h (1 Bft) N-NO 16 1,7 C 2,4 C 14,4 km/h (3 Bft) 100 %
13.12.2018 00:40 2,4 C 95 % 1025,9 hPa 0,0 l/m 4,6 km/h (1 Bft) NO 54 1,7 C 2,4 C 16,5 km/h (3 Bft) 99 %
13.12.2018 00:30 2,3 C 95 % 1026,0 hPa 0,0 l/m 3,1 km/h (1 Bft) O-NO 67 1,6 C 2,3 C 10,3 km/h (2 Bft) 99 %
13.12.2018 00:20 2,2 C 96 % 1026,0 hPa 0,0 l/m 4,9 km/h (1 Bft) O-NO 67 1,6 C 2,2 C 16,5 km/h (3 Bft) 99 %
13.12.2018 00:10 2,1 C 96 % 1026,1 hPa 0,0 l/m 3,7 km/h (1 Bft) N 11 1,5 C 2,1 C 8,2 km/h (2 Bft) 99 %
13.12.2018 00:00 1,9 C 96 % 1026,2 hPa 0,0 l/m 1,4 km/h (1 Bft) O-NO 68 1,3 C 1,9 C 6,2 km/h (2 Bft) 100 %
_ Min-Zeit 07:20 14:00 15:20 - 00:00 - - 17:00 06:50 00:00 03:50
Minimum _ 0,9 C 77 % 1023,0 hPa - 1,4 km/h (1 Bft) - - -0,3 C -0,6 C 6,2 km/h (2 Bft) 97 %
_ Max-Zeit 14:00 00:00 00:00 00:00 13:10 - - 01:10 13:40 13:10 00:50
Maximum _ 4,6 C 96 % 1026,2 hPa 0,0 l/m 12,4 km/h
O (3 Bft)
- - 1,8 C 4,4 C 30,9 km/h
O (5 Bft)
100 %
Durchschnitt _ 2,1 C 90 % 1024,2 hPa #0,0 l/m 5,3 km/h (1 Bft) O - 0,7 C 1,8 C 15,0 km/h (3 Bft) 100 %